Elliston Post Office, Australia
Current Conditions -  °F | °C
As of 4:00 AM on Sunday 26 Oct 2014 (Local Time) from YCDU Reporting Station
Scattered Clouds Scattered Clouds  
Wind Chill: 72°   Ceiling: Unl
Heat Index: 72°   Visibility: 6mi
Dew Point: 52°   Wind: 13mph
Humidity: 50%   Direction: 90°E
Pressure: 29.8"   Gusts: NA
Location:  33.65°S, 134.88°E
Report Text: YCDU 251800Z AUTO 09011KT 9999 // SCT105 22/11 Q1009
Loading
Personal Weather Stations






























Interactive Weather Map
Tropical Storm Tracking
New forecast layout! Learn more

10-Day Weather Forecast

Advertisements
Track Severe Weather on mobile